createdAt,value
2018-02-10T00:00:01.355Z,1009.39
2018-02-10T00:01:10.346Z,1009.34
2018-02-10T00:02:19.032Z,1009.35
2018-02-10T00:03:28.680Z,1009.35
2018-02-10T00:04:37.654Z,1009.36
2018-02-10T00:05:46.888Z,1009.34
2018-02-10T00:06:55.841Z,1009.35
2018-02-10T00:08:05.114Z,1009.39
2018-02-10T00:09:14.421Z,1009.4
2018-02-10T00:10:23.615Z,1009.43
2018-02-10T00:11:32.668Z,1009.4
2018-02-10T00:12:41.382Z,1009.39
2018-02-10T00:13:50.366Z,1009.4
2018-02-10T00:14:59.106Z,1009.41
2018-02-10T00:16:08.094Z,1009.41
2018-02-10T00:17:17.112Z,1009.42
2018-02-10T00:18:25.858Z,1009.44
2018-02-10T00:19:34.876Z,1009.44
2018-02-10T00:20:43.872Z,1009.43
2018-02-10T00:21:52.952Z,1009.44
2018-02-10T00:23:02.476Z,1009.49
2018-02-10T00:24:11.247Z,1009.48
2018-02-10T00:25:20.000Z,1009.5
2018-02-10T00:26:29.256Z,1009.49
2018-02-10T00:27:38.510Z,1009.46
2018-02-10T00:28:47.537Z,1009.5
2018-02-10T00:29:56.852Z,1009.52
2018-02-10T00:31:05.894Z,1009.52
2018-02-10T00:32:14.926Z,1009.53
2018-02-10T00:33:23.675Z,1009.52
2018-02-10T00:34:32.692Z,1009.49
2018-02-10T00:35:41.629Z,1009.51
2018-02-10T00:36:51.198Z,1009.54
2018-02-10T00:38:00.182Z,1009.55
2018-02-10T00:39:09.310Z,1009.5
2018-02-10T00:40:18.049Z,1009.52
2018-02-10T00:41:26.831Z,1009.54
2018-02-10T00:42:35.574Z,1009.53
2018-02-10T00:43:44.594Z,1009.51
2018-02-10T00:44:53.383Z,1009.56
2018-02-10T00:46:02.627Z,1009.59
2018-02-10T00:47:11.929Z,1009.57
2018-02-10T00:48:20.882Z,1009.59
2018-02-10T00:49:29.892Z,1009.68
2018-02-10T00:50:39.162Z,1009.63
2018-02-10T00:51:48.777Z,1009.63
2018-02-10T00:52:57.762Z,1009.6
2018-02-10T00:54:06.999Z,1009.66
2018-02-10T00:55:15.707Z,1009.69
2018-02-10T00:56:24.661Z,1009.71
2018-02-10T00:57:33.906Z,1009.72
2018-02-10T00:58:43.145Z,1009.68
2018-02-10T00:59:52.138Z,1009.69
2018-02-10T01:01:00.821Z,1009.72
2018-02-10T01:02:10.050Z,1009.74
2018-02-10T01:03:19.286Z,1009.72
2018-02-10T01:04:28.300Z,1009.74
2018-02-10T01:05:37.235Z,1009.79
2018-02-10T01:06:45.933Z,1009.72
2018-02-10T01:07:55.123Z,1009.73
2018-02-10T01:09:04.322Z,1009.77
2018-02-10T01:10:13.559Z,1009.72
2018-02-10T01:11:22.526Z,1009.74
2018-02-10T01:12:31.757Z,1009.72
2018-02-10T01:13:40.959Z,1009.74
2018-02-10T01:14:49.896Z,1009.75
2018-02-10T01:15:58.861Z,1009.75
2018-02-10T01:17:07.558Z,1009.79
2018-02-10T01:18:16.817Z,1009.83
2018-02-10T01:19:25.761Z,1009.77
2018-02-10T01:20:35.263Z,1009.79
2018-02-10T01:21:44.529Z,1009.73
2018-02-10T01:22:53.236Z,1009.81
2018-02-10T01:24:02.270Z,1009.79
2018-02-10T01:25:11.504Z,1009.79
2018-02-10T01:26:20.557Z,1009.79
2018-02-10T01:27:29.809Z,1009.79
2018-02-10T01:28:38.793Z,1009.82
2018-02-10T01:29:48.353Z,1009.84
2018-02-10T01:30:57.875Z,1009.84
2018-02-10T01:32:07.144Z,1009.83
2018-02-10T01:33:16.175Z,1009.86
2018-02-10T01:34:25.460Z,1009.88
2018-02-10T01:35:34.482Z,1009.86
2018-02-10T01:36:44.000Z,1009.84
2018-02-10T01:37:53.253Z,1009.88
2018-02-10T01:39:02.235Z,1009.9
2018-02-10T01:40:11.463Z,1009.89
2018-02-10T01:41:20.444Z,1009.9
2018-02-10T01:42:29.442Z,1009.9
2018-02-10T01:43:38.138Z,1009.88
2018-02-10T01:44:47.652Z,1009.85
2018-02-10T01:45:56.638Z,1009.86
2018-02-10T01:47:05.703Z,1009.83
2018-02-10T01:48:14.674Z,1009.83
2018-02-10T01:49:24.156Z,1009.79
2018-02-10T01:50:33.180Z,1009.82
2018-02-10T01:51:41.935Z,1009.81
2018-02-10T01:52:51.264Z,1009.79
2018-02-10T01:54:00.575Z,1009.86
2018-02-10T01:55:09.642Z,1009.81
2018-02-10T01:56:18.672Z,1009.82
2018-02-10T01:57:27.875Z,1009.84
2018-02-10T01:58:36.818Z,1009.84
2018-02-10T01:59:45.813Z,1009.8
2018-02-10T02:00:54.496Z,1009.8
2018-02-10T02:02:03.800Z,1009.85
2018-02-10T02:03:12.772Z,1009.81
2018-02-10T02:04:21.487Z,1009.77
2018-02-10T02:05:30.516Z,1009.78
2018-02-10T02:06:40.035Z,1009.79
2018-02-10T02:07:49.578Z,1009.81
2018-02-10T02:08:58.838Z,1009.81
2018-02-10T02:10:07.864Z,1009.81
2018-02-10T02:11:16.691Z,1009.82
2018-02-10T02:12:25.978Z,1009.84
2018-02-10T02:13:34.979Z,1009.83
2018-02-10T02:14:44.472Z,1009.88
2018-02-10T02:15:53.189Z,1009.88
2018-02-10T02:17:02.267Z,1009.92
2018-02-10T02:18:11.519Z,1009.88
2018-02-10T02:19:20.504Z,1009.86
2018-02-10T02:20:29.221Z,1009.84
2018-02-10T02:21:38.236Z,1009.87
2018-02-10T02:22:47.461Z,1009.88
2018-02-10T02:23:56.471Z,1009.85
2018-02-10T02:25:05.196Z,1009.9
2018-02-10T02:26:14.676Z,1009.87
2018-02-10T02:27:23.386Z,1009.9
2018-02-10T02:28:32.377Z,1009.86
2018-02-10T02:29:41.443Z,1009.85
2018-02-10T02:30:50.695Z,1009.89
2018-02-10T02:31:59.967Z,1009.86
2018-02-10T02:33:09.433Z,1009.86
2018-02-10T02:34:18.139Z,1009.84
2018-02-10T02:35:27.097Z,1009.89
2018-02-10T02:36:36.320Z,1009.84
2018-02-10T02:37:45.551Z,1009.82
2018-02-10T02:38:55.315Z,1009.8
2018-02-10T02:40:04.311Z,1009.82
2018-02-10T02:41:13.333Z,1009.83
2018-02-10T02:42:22.317Z,1009.86
2018-02-10T02:43:31.094Z,1009.81
2018-02-10T02:44:40.137Z,1009.8
2018-02-10T02:45:49.451Z,1009.82
2018-02-10T02:46:58.433Z,1009.78
2018-02-10T02:48:07.425Z,1009.79
2018-02-10T02:49:17.193Z,1009.78
2018-02-10T02:50:25.878Z,1009.78
2018-02-10T02:51:35.333Z,1009.8
2018-02-10T02:52:44.810Z,1009.79
2018-02-10T02:53:53.808Z,1009.84
2018-02-10T02:55:03.293Z,1009.87
2018-02-10T02:56:12.814Z,1009.86
2018-02-10T02:57:22.084Z,1009.85
2018-02-10T02:58:31.664Z,1009.84
2018-02-10T02:59:40.924Z,1009.83
2018-02-10T03:00:50.195Z,1009.81
2018-02-10T03:02:00.026Z,1009.8
2018-02-10T03:03:09.036Z,1009.86
2018-02-10T03:04:18.025Z,1009.8
2018-02-10T03:05:27.536Z,1009.83
2018-02-10T03:06:36.806Z,1009.82
2018-02-10T03:07:45.913Z,1009.86
2018-02-10T03:08:55.151Z,1009.9
2018-02-10T03:10:04.236Z,1009.9
2018-02-10T03:11:12.969Z,1009.89
2018-02-10T03:12:21.932Z,1009.96
2018-02-10T03:13:30.889Z,1009.96
2018-02-10T03:14:39.904Z,1009.94
2018-02-10T03:15:48.866Z,1009.97
2018-02-10T03:16:57.563Z,1009.94
2018-02-10T03:18:06.792Z,1009.93
2018-02-10T03:19:16.061Z,1009.96
2018-02-10T03:20:25.312Z,1009.94
2018-02-10T03:21:34.336Z,1009.95
2018-02-10T03:22:43.587Z,1009.95
2018-02-10T03:23:52.867Z,1009.96
2018-02-10T03:25:02.747Z,1010.04
2018-02-10T03:26:12.296Z,1010.04
2018-02-10T03:27:21.846Z,1010.04
2018-02-10T03:28:30.877Z,1010.07
2018-02-10T03:29:40.116Z,1010.09
2018-02-10T03:30:49.351Z,1010.1
2018-02-10T03:31:58.618Z,1010.11
2018-02-10T03:33:07.955Z,1010.14
2018-02-10T03:34:16.918Z,1010.13
2018-02-10T03:35:26.157Z,1010.15
2018-02-10T03:36:35.119Z,1010.15
2018-02-10T03:37:44.404Z,1010.17
2018-02-10T03:38:53.655Z,1010.18
2018-02-10T03:40:03.160Z,1010.17
2018-02-10T03:41:12.677Z,1010.17
2018-02-10T03:42:21.397Z,1010.21
2018-02-10T03:43:30.624Z,1010.23
2018-02-10T03:44:39.602Z,1010.19
2018-02-10T03:45:48.590Z,1010.21
2018-02-10T03:46:57.329Z,1010.15
2018-02-10T03:48:06.657Z,1010.17
2018-02-10T03:49:16.228Z,1010.17
2018-02-10T03:50:24.967Z,1010.19
2018-02-10T03:51:34.494Z,1010.16
2018-02-10T03:52:43.531Z,1010.17
2018-02-10T03:53:52.793Z,1010.16
2018-02-10T03:55:02.431Z,1010.16
2018-02-10T03:56:11.670Z,1010.18
2018-02-10T03:57:20.883Z,1010.15
2018-02-10T03:58:29.899Z,1010.16
2018-02-10T03:59:38.887Z,1010.19
2018-02-10T04:00:47.601Z,1010.23
2018-02-10T04:01:56.582Z,1010.22
2018-02-10T04:03:05.389Z,1010.28
2018-02-10T04:04:14.404Z,1010.26
2018-02-10T04:05:23.921Z,1010.28
2018-02-10T04:06:32.884Z,1010.3
2018-02-10T04:07:41.571Z,1010.3
2018-02-10T04:08:50.546Z,1010.31
2018-02-10T04:09:59.837Z,1010.32
2018-02-10T04:11:09.066Z,1010.34
2018-02-10T04:12:17.747Z,1010.36
2018-02-10T04:13:26.469Z,1010.37
2018-02-10T04:14:35.443Z,1010.45
2018-02-10T04:15:44.928Z,1010.43
2018-02-10T04:16:54.129Z,1010.47
2018-02-10T04:18:02.834Z,1010.47
2018-02-10T04:19:11.804Z,1010.52
2018-02-10T04:20:20.767Z,1010.52
2018-02-10T04:21:30.293Z,1010.52
2018-02-10T04:22:39.273Z,1010.52
2018-02-10T04:23:48.260Z,1010.5
2018-02-10T04:24:56.972Z,1010.47
2018-02-10T04:26:05.760Z,1010.49
2018-02-10T04:27:14.550Z,1010.5
2018-02-10T04:28:23.277Z,1010.5
2018-02-10T04:29:31.997Z,1010.48
2018-02-10T04:30:40.939Z,1010.53
2018-02-10T04:31:49.902Z,1010.53
2018-02-10T04:32:58.605Z,1010.53
2018-02-10T04:34:07.571Z,1010.5
2018-02-10T04:35:16.538Z,1010.53
2018-02-10T04:36:25.806Z,1010.5
2018-02-10T04:37:34.784Z,1010.53
2018-02-10T04:38:44.001Z,1010.53
2018-02-10T04:39:52.972Z,1010.57
2018-02-10T04:41:01.941Z,1010.57
2018-02-10T04:42:10.942Z,1010.58
2018-02-10T04:43:19.948Z,1010.59
2018-02-10T04:44:28.912Z,1010.62
2018-02-10T04:45:37.903Z,1010.63
2018-02-10T04:46:46.833Z,1010.68
2018-02-10T04:47:55.849Z,1010.7
2018-02-10T04:49:04.906Z,1010.69
2018-02-10T04:50:13.861Z,1010.73
2018-02-10T04:51:22.547Z,1010.75
2018-02-10T04:52:31.525Z,1010.79
2018-02-10T04:53:40.749Z,1010.74
2018-02-10T04:54:49.726Z,1010.79
2018-02-10T04:55:58.413Z,1010.77
2018-02-10T04:57:07.384Z,1010.81
2018-02-10T04:58:16.611Z,1010.78
2018-02-10T04:59:25.578Z,1010.79
2018-02-10T05:00:34.409Z,1010.78
2018-02-10T05:01:43.624Z,1010.82
2018-02-10T05:02:52.675Z,1010.87
2018-02-10T05:04:02.221Z,1010.9
2018-02-10T05:05:11.985Z,1010.92
2018-02-10T05:06:21.066Z,1010.89
2018-02-10T05:07:30.301Z,1010.92
2018-02-10T05:08:39.290Z,1010.93
2018-02-10T05:09:48.516Z,1010.88
2018-02-10T05:10:57.305Z,1010.92
2018-02-10T05:12:06.062Z,1010.92
2018-02-10T05:13:15.051Z,1010.92
2018-02-10T05:14:23.792Z,1010.95
2018-02-10T05:15:32.764Z,1010.95
2018-02-10T05:16:41.726Z,1010.92
2018-02-10T05:17:50.657Z,1010.95
2018-02-10T05:18:59.888Z,1010.98
2018-02-10T05:20:09.179Z,1010.91
2018-02-10T05:21:18.417Z,1010.87
2018-02-10T05:22:28.196Z,1010.93
2018-02-10T05:23:37.174Z,1010.94
2018-02-10T05:24:46.703Z,1010.88
2018-02-10T05:25:55.940Z,1010.88
2018-02-10T05:27:05.146Z,1010.86
2018-02-10T05:28:14.133Z,1010.86
2018-02-10T05:29:23.359Z,1010.93
2018-02-10T05:30:32.348Z,1010.92
2018-02-10T05:31:41.336Z,1010.96
2018-02-10T05:32:50.110Z,1010.96
2018-02-10T05:33:58.824Z,1010.99
2018-02-10T05:35:07.534Z,1010.95
2018-02-10T05:36:16.240Z,1010.91
2018-02-10T05:37:25.218Z,1010.92
2018-02-10T05:38:34.250Z,1010.9
2018-02-10T05:39:43.231Z,1010.87
2018-02-10T05:40:51.998Z,1010.89
2018-02-10T05:42:01.240Z,1010.91
2018-02-10T05:43:10.270Z,1010.86
2018-02-10T05:44:19.284Z,1010.87
2018-02-10T05:45:28.602Z,1010.84
2018-02-10T05:46:38.126Z,1010.86
2018-02-10T05:47:47.409Z,1010.9
2018-02-10T05:48:56.387Z,1010.86
2018-02-10T05:50:05.169Z,1010.83
2018-02-10T05:51:14.424Z,1010.86
2018-02-10T05:52:23.751Z,1010.86
2018-02-10T05:53:32.703Z,1010.82
2018-02-10T05:54:41.659Z,1010.84
2018-02-10T05:55:51.220Z,1010.85
2018-02-10T05:57:00.482Z,1010.8
2018-02-10T05:58:09.437Z,1010.79
2018-02-10T05:59:18.924Z,1010.8
2018-02-10T06:00:28.151Z,1010.81
2018-02-10T06:01:36.861Z,1010.79
2018-02-10T06:02:45.564Z,1010.85
2018-02-10T06:03:54.528Z,1010.84
2018-02-10T06:05:03.492Z,1010.85
2018-02-10T06:06:12.200Z,1010.86
2018-02-10T06:07:21.163Z,1010.9
2018-02-10T06:08:29.902Z,1010.87
2018-02-10T06:09:38.587Z,1010.9
2018-02-10T06:10:47.858Z,1010.9
2018-02-10T06:11:57.063Z,1010.92
2018-02-10T06:13:05.780Z,1010.91
2018-02-10T06:14:14.754Z,1010.89
2018-02-10T06:15:23.534Z,1010.88
2018-02-10T06:16:32.542Z,1010.89
2018-02-10T06:17:41.511Z,1010.85
2018-02-10T06:18:50.751Z,1010.88
2018-02-10T06:20:00.071Z,1010.83
2018-02-10T06:21:09.311Z,1010.88
2018-02-10T06:22:18.550Z,1010.86
2018-02-10T06:23:27.557Z,1010.86
2018-02-10T06:24:36.683Z,1010.84
2018-02-10T06:25:45.420Z,1010.86
2018-02-10T06:26:54.432Z,1010.86
2018-02-10T06:28:03.174Z,1010.87
2018-02-10T06:29:11.880Z,1010.86
2018-02-10T06:30:20.597Z,1010.83
2018-02-10T06:31:29.607Z,1010.83
2018-02-10T06:32:38.319Z,1010.85
2018-02-10T06:33:47.053Z,1010.86
2018-02-10T06:34:55.753Z,1010.86
2018-02-10T06:36:04.712Z,1010.86
2018-02-10T06:37:13.684Z,1010.84
2018-02-10T06:38:22.946Z,1010.9
2018-02-10T06:39:32.481Z,1010.89
2018-02-10T06:40:41.703Z,1010.92
2018-02-10T06:41:50.764Z,1010.91
2018-02-10T06:42:59.462Z,1010.92
2018-02-10T06:44:08.163Z,1010.94
2018-02-10T06:45:17.685Z,1010.95
2018-02-10T06:46:26.926Z,1010.95
2018-02-10T06:47:35.913Z,1010.94
2018-02-10T06:48:44.891Z,1010.92
2018-02-10T06:49:53.882Z,1010.9
2018-02-10T06:51:02.875Z,1010.92
2018-02-10T06:52:12.152Z,1010.92
2018-02-10T06:53:20.914Z,1010.88
2018-02-10T06:54:29.926Z,1010.92
2018-02-10T06:55:39.226Z,1010.94
2018-02-10T06:56:48.341Z,1010.89
2018-02-10T06:57:57.122Z,1010.89
2018-02-10T06:59:06.814Z,1010.93
2018-02-10T07:00:16.098Z,1010.96
2018-02-10T07:01:25.907Z,1010.95
2018-02-10T07:02:35.713Z,1010.94
2018-02-10T07:03:44.497Z,1010.94
2018-02-10T07:04:53.342Z,1010.98
2018-02-10T07:06:02.079Z,1010.96
2018-02-10T07:07:10.800Z,1010.98
2018-02-10T07:08:19.796Z,1010.97
2018-02-10T07:09:28.826Z,1010.94
2018-02-10T07:10:38.122Z,1010.93
2018-02-10T07:11:46.842Z,1010.91
2018-02-10T07:12:55.558Z,1010.95
2018-02-10T07:14:05.147Z,1010.96
2018-02-10T07:15:14.162Z,1010.88
2018-02-10T07:16:23.422Z,1010.92
2018-02-10T07:17:32.441Z,1010.9
2018-02-10T07:18:42.546Z,1010.92
2018-02-10T07:19:51.562Z,1010.96
2018-02-10T07:21:00.281Z,1010.94
2018-02-10T07:22:09.549Z,1010.93
2018-02-10T07:23:18.561Z,1010.92
2018-02-10T07:24:27.283Z,1010.94
2018-02-10T07:25:36.512Z,1010.93
2018-02-10T07:26:46.301Z,1010.92
2018-02-10T07:27:55.337Z,1010.95
2018-02-10T07:29:04.903Z,1010.95
2018-02-10T07:30:13.674Z,1011.01
2018-02-10T07:31:22.417Z,1011.03
2018-02-10T07:32:31.428Z,1011.05
2018-02-10T07:33:40.388Z,1011.07
2018-02-10T07:34:49.069Z,1011.11
2018-02-10T07:35:58.072Z,1011.14
2018-02-10T07:37:07.048Z,1011.16
2018-02-10T07:38:16.025Z,1011.17
2018-02-10T07:39:25.647Z,1011.2
2018-02-10T07:40:34.917Z,1011.24
2018-02-10T07:41:44.656Z,1011.27
2018-02-10T07:42:53.635Z,1011.24
2018-02-10T07:44:02.865Z,1011.25
2018-02-10T07:45:11.844Z,1011.25
2018-02-10T07:46:20.556Z,1011.24
2018-02-10T07:47:29.545Z,1011.24
2018-02-10T07:48:39.023Z,1011.27
2018-02-10T07:49:47.985Z,1011.28
2018-02-10T07:50:56.777Z,1011.31
2018-02-10T07:52:05.770Z,1011.31
2018-02-10T07:53:15.032Z,1011.25
2018-02-10T07:54:23.986Z,1011.31
2018-02-10T07:55:32.678Z,1011.25
2018-02-10T07:56:41.622Z,1011.24
2018-02-10T07:57:50.605Z,1011.24
2018-02-10T07:58:59.581Z,1011.3
2018-02-10T08:00:08.827Z,1011.28
2018-02-10T08:01:17.541Z,1011.28
2018-02-10T08:02:27.049Z,1011.3
2018-02-10T08:03:36.044Z,1011.29
2018-02-10T08:04:45.125Z,1011.29
2018-02-10T08:05:54.088Z,1011.29
2018-02-10T08:07:03.045Z,1011.26
2018-02-10T08:08:11.997Z,1011.29
2018-02-10T08:09:20.724Z,1011.29
2018-02-10T08:10:30.231Z,1011.32
2018-02-10T08:11:39.783Z,1011.28
2018-02-10T08:12:49.043Z,1011.28
2018-02-10T08:13:58.311Z,1011.3
2018-02-10T08:15:07.288Z,1011.33
2018-02-10T08:16:16.659Z,1011.33
2018-02-10T08:17:25.362Z,1011.35
2018-02-10T08:18:34.592Z,1011.36
2018-02-10T08:19:43.791Z,1011.32
2018-02-10T08:20:52.748Z,1011.34
2018-02-10T08:22:02.230Z,1011.29
2018-02-10T08:23:11.202Z,1011.3
2018-02-10T08:24:20.692Z,1011.34
2018-02-10T08:25:29.891Z,1011.33
2018-02-10T08:26:38.660Z,1011.32
2018-02-10T08:27:47.903Z,1011.25
2018-02-10T08:28:56.653Z,1011.27
2018-02-10T08:30:05.373Z,1011.27
2018-02-10T08:31:14.703Z,1011.26
2018-02-10T08:32:23.962Z,1011.26
2018-02-10T08:33:32.665Z,1011.29
2018-02-10T08:34:41.635Z,1011.24
2018-02-10T08:35:50.595Z,1011.27
2018-02-10T08:36:59.602Z,1011.25
2018-02-10T08:38:08.875Z,1011.22
2018-02-10T08:39:18.141Z,1011.23
2018-02-10T08:40:27.413Z,1011.21
2018-02-10T08:41:36.376Z,1011.24
2018-02-10T08:42:45.902Z,1011.22
2018-02-10T08:43:55.154Z,1011.23
2018-02-10T08:45:04.121Z,1011.27
2018-02-10T08:46:12.869Z,1011.32
2018-02-10T08:47:21.812Z,1011.33
2018-02-10T08:48:31.058Z,1011.35
2018-02-10T08:49:40.297Z,1011.35
2018-02-10T08:50:49.267Z,1011.33
2018-02-10T08:51:57.983Z,1011.32
2018-02-10T08:53:06.959Z,1011.3
2018-02-10T08:54:16.017Z,1011.28
2018-02-10T08:55:25.004Z,1011.26
2018-02-10T08:56:33.965Z,1011.32
2018-02-10T08:57:43.192Z,1011.26
2018-02-10T08:58:52.166Z,1011.28
2018-02-10T09:00:00.963Z,1011.29
2018-02-10T09:01:09.933Z,1011.31
2018-02-10T09:02:19.414Z,1011.27
2018-02-10T09:03:28.348Z,1011.28
2018-02-10T09:04:37.585Z,1011.22
2018-02-10T09:05:47.111Z,1011.23
2018-02-10T09:06:55.804Z,1011.2
2018-02-10T09:08:04.766Z,1011.28
2018-02-10T09:09:13.976Z,1011.26
2018-02-10T09:10:23.193Z,1011.26
2018-02-10T09:11:32.134Z,1011.28
2018-02-10T09:12:41.335Z,1011.32
2018-02-10T09:13:50.878Z,1011.36
2018-02-10T09:14:59.843Z,1011.39
2018-02-10T09:16:08.845Z,1011.4
2018-02-10T09:17:17.828Z,1011.45
2018-02-10T09:18:26.845Z,1011.41
2018-02-10T09:19:35.799Z,1011.42
2018-02-10T09:20:45.036Z,1011.39
2018-02-10T09:21:54.265Z,1011.41
2018-02-10T09:23:03.330Z,1011.44
2018-02-10T09:24:12.577Z,1011.41
2018-02-10T09:25:21.804Z,1011.38
2018-02-10T09:26:30.523Z,1011.46
2018-02-10T09:27:40.090Z,1011.47
2018-02-10T09:28:49.516Z,1011.45
2018-02-10T09:29:58.498Z,1011.5
2018-02-10T09:31:07.534Z,1011.47
2018-02-10T09:32:16.753Z,1011.52
2018-02-10T09:33:25.700Z,1011.51
2018-02-10T09:34:34.659Z,1011.54
2018-02-10T09:35:43.862Z,1011.5
2018-02-10T09:36:52.543Z,1011.49
2018-02-10T09:38:01.245Z,1011.46
2018-02-10T09:39:09.936Z,1011.44
2018-02-10T09:40:19.181Z,1011.47
2018-02-10T09:41:28.438Z,1011.44
2018-02-10T09:42:37.397Z,1011.46
2018-02-10T09:43:46.926Z,1011.47
2018-02-10T09:44:55.922Z,1011.51
2018-02-10T09:46:05.184Z,1011.49
2018-02-10T09:47:14.402Z,1011.54
2018-02-10T09:48:23.179Z,1011.53
2018-02-10T09:49:32.676Z,1011.52
2018-02-10T09:50:41.990Z,1011.47
2018-02-10T09:51:51.257Z,1011.46
2018-02-10T09:52:59.948Z,1011.47
2018-02-10T09:54:09.163Z,1011.47
2018-02-10T09:55:17.844Z,1011.48
2018-02-10T09:56:26.820Z,1011.49
2018-02-10T09:57:36.017Z,1011.44
2018-02-10T09:58:45.222Z,1011.45
2018-02-10T09:59:54.188Z,1011.48
2018-02-10T10:01:03.150Z,1011.46
2018-02-10T10:02:12.390Z,1011.48
2018-02-10T10:03:21.098Z,1011.49
2018-02-10T10:04:30.321Z,1011.49
2018-02-10T10:05:39.560Z,1011.49
2018-02-10T10:06:48.245Z,1011.5
2018-02-10T10:07:57.460Z,1011.52
2018-02-10T10:09:06.170Z,1011.47
2018-02-10T10:10:15.117Z,1011.55
2018-02-10T10:11:24.060Z,1011.58
2018-02-10T10:12:32.746Z,1011.58
2018-02-10T10:13:42.052Z,1011.57
2018-02-10T10:14:51.296Z,1011.6
2018-02-10T10:16:00.544Z,1011.61
2018-02-10T10:17:09.255Z,1011.54
2018-02-10T10:18:17.936Z,1011.55
2018-02-10T10:19:27.159Z,1011.57
2018-02-10T10:20:36.106Z,1011.58
2018-02-10T10:21:45.096Z,1011.62
2018-02-10T10:22:54.060Z,1011.65
2018-02-10T10:24:03.537Z,1011.63
2018-02-10T10:25:13.012Z,1011.64
2018-02-10T10:26:21.986Z,1011.63
2018-02-10T10:27:30.697Z,1011.64
2018-02-10T10:28:40.197Z,1011.64
2018-02-10T10:29:49.491Z,1011.66
2018-02-10T10:30:58.461Z,1011.68
2018-02-10T10:32:07.722Z,1011.7
2018-02-10T10:33:16.675Z,1011.7
2018-02-10T10:34:25.633Z,1011.73
2018-02-10T10:35:34.623Z,1011.71
2018-02-10T10:36:44.085Z,1011.73
2018-02-10T10:37:53.285Z,1011.7
2018-02-10T10:39:02.765Z,1011.78
2018-02-10T10:40:11.991Z,1011.74
2018-02-10T10:41:21.632Z,1011.69
2018-02-10T10:42:34.244Z,1011.68
2018-02-10T10:43:43.566Z,1011.67
2018-02-10T10:44:52.265Z,1011.69
2018-02-10T10:46:01.509Z,1011.7
2018-02-10T10:47:10.747Z,1011.69
2018-02-10T10:48:19.709Z,1011.68
2018-02-10T10:49:28.666Z,1011.68
2018-02-10T10:50:37.613Z,1011.71
2018-02-10T10:51:46.828Z,1011.65
2018-02-10T10:52:56.030Z,1011.66
2018-02-10T10:54:04.721Z,1011.65
2018-02-10T10:55:14.195Z,1011.65
2018-02-10T10:56:23.413Z,1011.63
2018-02-10T10:57:33.143Z,1011.59
2018-02-10T10:58:42.109Z,1011.63
2018-02-10T10:59:51.338Z,1011.57
2018-02-10T11:01:00.560Z,1011.56
2018-02-10T11:02:09.271Z,1011.57
2018-02-10T11:03:18.217Z,1011.56
2018-02-10T11:04:27.165Z,1011.55
2018-02-10T11:05:36.640Z,1011.56
2018-02-10T11:06:45.893Z,1011.54
2018-02-10T11:07:55.668Z,1011.57
2018-02-10T11:09:04.605Z,1011.52
2018-02-10T11:10:14.371Z,1011.53
2018-02-10T11:11:23.084Z,1011.48
2018-02-10T11:12:32.285Z,1011.47
2018-02-10T11:13:41.232Z,1011.48
2018-02-10T11:14:50.457Z,1011.44
2018-02-10T11:15:59.440Z,1011.43
2018-02-10T11:17:08.448Z,1011.45
2018-02-10T11:18:17.532Z,1011.41
2018-02-10T11:19:26.785Z,1011.45
2018-02-10T11:20:36.025Z,1011.47
2018-02-10T11:21:44.739Z,1011.48
2018-02-10T11:22:53.443Z,1011.48
2018-02-10T11:24:02.686Z,1011.5
2018-02-10T11:25:11.397Z,1011.47
2018-02-10T11:26:20.444Z,1011.46
2018-02-10T11:27:29.687Z,1011.43
2018-02-10T11:28:38.945Z,1011.42
2018-02-10T11:29:47.620Z,1011.38
2018-02-10T11:30:56.314Z,1011.41
2018-02-10T11:32:05.788Z,1011.45
2018-02-10T11:33:15.268Z,1011.38
2018-02-10T11:34:24.511Z,1011.45
2018-02-10T11:35:33.738Z,1011.47
2018-02-10T11:36:42.684Z,1011.45
2018-02-10T11:37:51.628Z,1011.49
2018-02-10T11:39:00.853Z,1011.49
2018-02-10T11:40:10.053Z,1011.48
2018-02-10T11:41:19.369Z,1011.48
2018-02-10T11:42:28.851Z,1011.46
2018-02-10T11:43:38.066Z,1011.45
2018-02-10T11:44:46.811Z,1011.47
2018-02-10T11:45:56.050Z,1011.49
2018-02-10T11:47:05.000Z,1011.43
2018-02-10T11:48:13.724Z,1011.44
2018-02-10T11:49:22.759Z,1011.44
2018-02-10T11:50:31.717Z,1011.39
2018-02-10T11:51:40.947Z,1011.4
2018-02-10T11:52:50.418Z,1011.42
2018-02-10T11:53:59.667Z,1011.4
2018-02-10T11:55:08.643Z,1011.4
2018-02-10T11:56:17.342Z,1011.39
2018-02-10T11:57:26.048Z,1011.39
2018-02-10T11:58:35.006Z,1011.41
2018-02-10T11:59:44.218Z,1011.42
2018-02-10T12:00:53.171Z,1011.42
2018-02-10T12:02:02.412Z,1011.38
2018-02-10T12:03:11.665Z,1011.39
2018-02-10T12:04:20.359Z,1011.37
2018-02-10T12:05:29.360Z,1011.38
2018-02-10T12:06:38.272Z,1011.37
2018-02-10T12:07:47.493Z,1011.41
2018-02-10T12:08:56.718Z,1011.42
2018-02-10T12:10:05.717Z,1011.38
2018-02-10T12:11:14.717Z,1011.38
2018-02-10T12:12:23.668Z,1011.36
2018-02-10T12:13:32.399Z,1011.37
2018-02-10T12:14:41.406Z,1011.37
2018-02-10T12:15:50.924Z,1011.36
2018-02-10T12:16:59.613Z,1011.37
2018-02-10T12:18:08.559Z,1011.33
2018-02-10T12:19:17.529Z,1011.3
2018-02-10T12:20:26.464Z,1011.3
2018-02-10T12:21:35.690Z,1011.32
2018-02-10T12:22:45.432Z,1011.28
2018-02-10T12:23:54.647Z,1011.29
2018-02-10T12:25:03.609Z,1011.29
2018-02-10T12:26:12.620Z,1011.26
2018-02-10T12:27:21.466Z,1011.25
2018-02-10T12:28:30.150Z,1011.28
2018-02-10T12:29:39.665Z,1011.27
2018-02-10T12:30:48.627Z,1011.24
2018-02-10T12:31:57.585Z,1011.22
2018-02-10T12:33:06.279Z,1011.21
2018-02-10T12:34:15.257Z,1011.21
2018-02-10T12:35:24.766Z,1011.2
2018-02-10T12:36:33.703Z,1011.25
2018-02-10T12:37:42.420Z,1011.21
2018-02-10T12:38:51.639Z,1011.19
2018-02-10T12:40:00.582Z,1011.21
2018-02-10T12:41:09.555Z,1011.17
2018-02-10T12:42:18.540Z,1011.12
2018-02-10T12:43:27.488Z,1011.12
2018-02-10T12:44:36.436Z,1011.14
2018-02-10T12:45:45.658Z,1011.16
2018-02-10T12:46:55.235Z,1011.23
2018-02-10T12:48:04.175Z,1011.24
2018-02-10T12:49:12.887Z,1011.19
2018-02-10T12:50:22.436Z,1011.2
2018-02-10T12:51:31.171Z,1011.16
2018-02-10T12:52:39.935Z,1011.2
2018-02-10T12:53:48.959Z,1011.12
2018-02-10T12:54:57.928Z,1011.14
2018-02-10T12:56:06.640Z,1011.1
2018-02-10T12:57:15.663Z,1011.13
2018-02-10T12:58:24.625Z,1011.1
2018-02-10T12:59:33.906Z,1011.05
2018-02-10T13:00:42.820Z,1011.05
2018-02-10T13:01:51.795Z,1011.07
2018-02-10T13:03:00.755Z,1011.05
2018-02-10T13:04:09.948Z,1011.04
2018-02-10T13:05:18.939Z,1011.01
2018-02-10T13:06:28.429Z,1011.07
2018-02-10T13:07:37.703Z,1011.01
2018-02-10T13:08:46.964Z,1011.05
2018-02-10T13:09:55.662Z,1011.07
2018-02-10T13:11:04.408Z,1011.09
2018-02-10T13:12:13.631Z,1011.12
2018-02-10T13:13:22.871Z,1011.11
2018-02-10T13:14:31.544Z,1011.11
2018-02-10T13:15:40.228Z,1011.11
2018-02-10T13:16:48.976Z,1011.08
2018-02-10T13:17:58.222Z,1011.04
2018-02-10T13:19:07.186Z,1011.04
2018-02-10T13:20:15.865Z,1011.08
2018-02-10T13:21:24.837Z,1011.06
2018-02-10T13:22:34.312Z,1011.05
2018-02-10T13:23:43.325Z,1011.02
2018-02-10T13:24:52.036Z,1011
2018-02-10T13:26:00.736Z,1010.98
2018-02-10T13:27:09.429Z,1010.97
2018-02-10T13:28:18.397Z,1010.9
2018-02-10T13:29:27.656Z,1010.89
2018-02-10T13:30:36.916Z,1010.92
2018-02-10T13:31:46.177Z,1010.85
2018-02-10T13:32:55.147Z,1010.83
2018-02-10T13:34:04.651Z,1010.86
2018-02-10T13:35:13.604Z,1010.8
2018-02-10T13:36:22.827Z,1010.82
2018-02-10T13:37:31.848Z,1010.77
2018-02-10T13:38:40.813Z,1010.8
2018-02-10T13:39:49.783Z,1010.82
2018-02-10T13:40:59.069Z,1010.79
2018-02-10T13:42:08.008Z,1010.79
2018-02-10T13:43:16.947Z,1010.8
2018-02-10T13:44:25.645Z,1010.81
2018-02-10T13:45:34.332Z,1010.78
2018-02-10T13:46:43.309Z,1010.79
2018-02-10T13:47:52.255Z,1010.77
2018-02-10T13:49:00.946Z,1010.77
2018-02-10T13:50:09.922Z,1010.79
2018-02-10T13:51:18.636Z,1010.74
2018-02-10T13:52:27.365Z,1010.78
2018-02-10T13:53:36.901Z,1010.79
2018-02-10T13:54:45.845Z,1010.75
2018-02-10T13:55:54.804Z,1010.74
2018-02-10T13:57:04.005Z,1010.79
2018-02-10T13:58:13.227Z,1010.77